createdAt,value
2022-11-02T00:00:58.700Z,53.13
2022-11-02T00:06:05.780Z,54.23
2022-11-02T00:11:11.858Z,54.55
2022-11-02T00:16:18.220Z,53.83
2022-11-02T00:21:25.514Z,53.37
2022-11-02T00:26:31.320Z,52.53
2022-11-02T00:31:36.433Z,52.00
2022-11-02T00:36:41.927Z,51.83
2022-11-02T00:41:47.388Z,51.93
2022-11-02T00:46:52.337Z,52.30
2022-11-02T00:51:57.802Z,50.97
2022-11-02T00:57:04.057Z,50.83
2022-11-02T01:02:09.994Z,51.60
2022-11-02T01:07:15.927Z,51.83
2022-11-02T01:12:21.182Z,50.63
2022-11-02T01:17:27.630Z,50.77
2022-11-02T01:22:33.430Z,51.10
2022-11-02T01:27:38.894Z,51.05
2022-11-02T01:32:43.876Z,49.93
2022-11-02T01:37:49.317Z,49.97
2022-11-02T01:42:54.459Z,50.13
2022-11-02T01:48:01.022Z,50.35
2022-11-02T01:53:07.124Z,50.93
2022-11-02T01:58:13.790Z,51.27
2022-11-02T02:03:21.334Z,50.43
2022-11-02T02:08:29.100Z,49.55
2022-11-02T02:13:35.306Z,48.50
2022-11-02T02:18:45.656Z,49.85
2022-11-02T02:24:13.559Z,49.73
2022-11-02T02:29:24.265Z,49.20
2022-11-02T02:34:38.943Z,48.55
2022-11-02T02:40:05.700Z,48.77
2022-11-02T02:45:20.591Z,48.58
2022-11-02T02:50:29.399Z,48.43
2022-11-02T02:55:38.163Z,47.83
2022-11-02T03:00:43.724Z,48.33
2022-11-02T03:06:06.577Z,48.53
2022-11-02T03:11:20.481Z,48.27
2022-11-02T03:16:53.199Z,47.87
2022-11-02T03:22:04.731Z,47.07
2022-11-02T03:27:18.761Z,47.80
2022-11-02T03:32:29.799Z,47.60
2022-11-02T03:37:38.652Z,47.13
2022-11-02T03:42:45.282Z,47.43
2022-11-02T03:47:59.368Z,47.20
2022-11-02T03:53:13.875Z,47.07
2022-11-02T03:58:20.061Z,47.47
2022-11-02T04:03:25.949Z,47.57
2022-11-02T04:08:37.190Z,48.13
2022-11-02T04:14:01.223Z,47.43
2022-11-02T04:19:25.018Z,46.70
2022-11-02T04:24:48.600Z,46.15
2022-11-02T04:29:54.240Z,46.00
2022-11-02T04:35:00.350Z,45.77
2022-11-02T04:40:06.187Z,45.57
2022-11-02T04:45:11.566Z,45.53
2022-11-02T04:50:19.486Z,45.55
2022-11-02T04:55:25.115Z,45.35
2022-11-02T05:00:30.104Z,45.70
2022-11-02T05:05:35.827Z,44.80
2022-11-02T05:10:41.433Z,45.03
2022-11-02T05:15:46.383Z,44.70
2022-11-02T05:20:52.757Z,44.60
2022-11-02T05:26:00.118Z,44.88
2022-11-02T05:31:07.274Z,46.23
2022-11-02T05:36:13.473Z,44.67
2022-11-02T05:41:18.793Z,46.00
2022-11-02T05:46:24.636Z,45.13
2022-11-02T05:51:30.043Z,44.30
2022-11-02T05:56:36.216Z,43.97
2022-11-02T06:01:41.368Z,45.67
2022-11-02T06:06:46.999Z,44.67
2022-11-02T06:11:52.502Z,46.00
2022-11-02T06:16:58.780Z,44.93
2022-11-02T06:22:04.448Z,44.80
2022-11-02T06:27:09.869Z,43.47
2022-11-02T06:32:15.265Z,43.77
2022-11-02T06:37:20.520Z,44.80
2022-11-02T06:42:25.573Z,45.93
2022-11-02T06:47:32.952Z,47.17
2022-11-02T06:52:41.715Z,48.73
2022-11-02T06:57:47.694Z,46.77
2022-11-02T07:03:04.875Z,48.60
2022-11-02T07:08:10.964Z,46.40
2022-11-02T07:13:16.367Z,45.13
2022-11-02T07:18:22.372Z,45.17
2022-11-02T07:23:27.556Z,45.57
2022-11-02T07:28:32.952Z,47.93
2022-11-02T07:33:38.308Z,47.50
2022-11-02T07:38:44.075Z,48.73
2022-11-02T07:43:51.388Z,47.93
2022-11-02T07:54:02.818Z,48.70
2022-11-02T07:59:07.980Z,49.48
2022-11-02T08:04:13.463Z,48.40
2022-11-02T08:09:19.921Z,49.93
2022-11-02T08:14:27.775Z,53.07
2022-11-02T08:19:32.992Z,52.97
2022-11-02T08:24:38.699Z,53.00
2022-11-02T08:29:43.612Z,53.30
2022-11-02T08:34:48.504Z,52.67
2022-11-02T08:39:53.611Z,52.47
2022-11-02T08:44:59.074Z,52.20
2022-11-02T08:50:04.209Z,53.10
2022-11-02T08:55:09.550Z,51.80
2022-11-02T09:00:15.819Z,51.67
2022-11-02T09:05:21.170Z,52.63
2022-11-02T09:10:27.560Z,51.40
2022-11-02T09:15:35.671Z,50.23
2022-11-02T09:20:40.631Z,51.53
2022-11-02T09:25:45.968Z,51.73
2022-11-02T09:30:51.981Z,52.17
2022-11-02T09:41:04.251Z,52.03
2022-11-02T09:46:18.789Z,53.17
2022-11-02T09:51:39.372Z,52.50
2022-11-02T09:56:45.877Z,53.47
2022-11-02T10:01:56.640Z,52.53
2022-11-02T10:07:07.598Z,52.10
2022-11-02T10:12:38.134Z,51.63
2022-11-02T10:17:44.799Z,51.83
2022-11-02T10:22:49.845Z,52.43
2022-11-02T10:27:57.975Z,52.00
2022-11-02T10:33:03.841Z,52.00
2022-11-02T10:43:52.105Z,51.70
2022-11-02T10:49:06.852Z,51.87
2022-11-02T10:54:17.840Z,51.77
2022-11-02T10:59:27.335Z,51.43
2022-11-02T11:04:33.812Z,51.70
2022-11-02T11:09:46.529Z,51.50
2022-11-02T11:20:02.779Z,51.77
2022-11-02T11:25:15.377Z,51.97
2022-11-02T11:35:43.719Z,51.57
2022-11-02T11:40:53.709Z,51.87
2022-11-02T11:46:06.232Z,51.63
2022-11-02T11:51:25.717Z,51.40
2022-11-02T11:56:31.784Z,52.37
2022-11-02T12:01:40.902Z,52.27
2022-11-02T12:06:52.511Z,52.43
2022-11-02T12:12:17.293Z,52.13
2022-11-02T12:17:27.734Z,52.37
2022-11-02T12:22:55.329Z,52.00
2022-11-02T12:28:04.346Z,51.30
2022-11-02T12:33:24.010Z,51.67
2022-11-02T12:38:48.499Z,51.23
2022-11-02T12:44:02.585Z,51.83
2022-11-02T12:49:35.462Z,54.07
2022-11-02T12:54:55.607Z,52.57
2022-11-02T13:00:04.164Z,52.00
2022-11-02T13:05:21.873Z,52.90
2022-11-02T13:10:33.070Z,51.97
2022-11-02T13:15:40.985Z,53.87
2022-11-02T13:20:59.623Z,52.77
2022-11-02T13:26:22.444Z,53.03
2022-11-02T13:31:45.336Z,51.58
2022-11-02T13:36:51.325Z,51.83
2022-11-02T13:42:08.669Z,51.05
2022-11-02T13:47:46.804Z,51.37
2022-11-02T13:53:02.382Z,51.37
2022-11-02T13:58:08.760Z,51.83
2022-11-02T14:03:32.397Z,51.43
2022-11-02T14:08:41.331Z,52.17
2022-11-02T14:13:59.250Z,51.77
2022-11-02T14:19:24.549Z,51.53
2022-11-02T14:24:39.755Z,51.77
2022-11-02T14:29:48.606Z,51.77
2022-11-02T14:35:13.087Z,52.27
2022-11-02T14:40:36.878Z,51.73
2022-11-02T14:46:03.540Z,51.93
2022-11-02T14:51:10.021Z,52.33
2022-11-02T14:56:16.143Z,51.87
2022-11-02T15:06:29.568Z,52.00
2022-11-02T15:11:58.979Z,50.92
2022-11-02T15:17:13.000Z,52.07
2022-11-02T15:22:28.017Z,52.27
2022-11-02T15:27:34.739Z,51.67
2022-11-02T15:32:42.949Z,52.87
2022-11-02T15:38:11.384Z,52.43
2022-11-02T15:43:28.674Z,52.40
2022-11-02T15:49:00.147Z,52.43
2022-11-02T15:54:32.333Z,52.40
2022-11-02T15:59:55.951Z,53.55
2022-11-02T16:05:03.092Z,55.27
2022-11-02T16:10:26.245Z,53.40
2022-11-02T16:15:31.988Z,52.95
2022-11-02T16:20:40.530Z,52.67
2022-11-02T16:25:48.149Z,56.53
2022-11-02T16:31:17.235Z,53.10
2022-11-02T16:36:27.005Z,53.57
2022-11-02T16:41:35.706Z,52.73
2022-11-02T16:46:53.467Z,52.27
2022-11-02T16:52:01.443Z,58.37
2022-11-02T16:57:15.329Z,55.17
2022-11-02T17:02:26.668Z,53.97
2022-11-02T17:07:44.276Z,57.10
2022-11-02T17:12:49.933Z,59.17
2022-11-02T17:18:04.997Z,56.70
2022-11-02T17:23:12.912Z,62.23
2022-11-02T17:28:29.873Z,53.03
2022-11-02T17:33:36.008Z,51.97
2022-11-02T17:38:41.390Z,82.88
2022-11-02T17:43:49.558Z,58.83
2022-11-02T17:48:54.915Z,52.70
2022-11-02T17:54:01.092Z,59.00
2022-11-02T17:59:08.040Z,54.97
2022-11-02T18:04:13.098Z,52.00
2022-11-02T18:09:19.722Z,52.83
2022-11-02T18:14:24.905Z,54.80
2022-11-02T18:19:32.184Z,54.23
2022-11-02T18:24:37.697Z,52.93
2022-11-02T18:29:43.297Z,52.47
2022-11-02T18:34:48.216Z,52.73
2022-11-02T18:39:53.132Z,52.40
2022-11-02T18:45:00.254Z,52.37
2022-11-02T18:50:09.081Z,53.42
2022-11-02T18:55:14.291Z,51.93
2022-11-02T19:00:19.956Z,50.93
2022-11-02T19:05:42.619Z,50.57
2022-11-02T19:10:49.270Z,50.47
2022-11-02T19:20:59.936Z,49.65
2022-11-02T19:26:04.970Z,49.27
2022-11-02T19:31:10.330Z,48.87
2022-11-02T19:36:15.535Z,49.37
2022-11-02T19:41:21.714Z,49.23
2022-11-02T19:46:27.597Z,47.83
2022-11-02T19:51:33.245Z,52.93
2022-11-02T19:56:39.078Z,48.17
2022-11-02T20:01:44.840Z,48.70
2022-11-02T20:06:50.269Z,48.87
2022-11-02T20:11:56.581Z,47.03
2022-11-02T20:17:25.219Z,51.23
2022-11-02T20:22:10.130Z,49.73
2022-11-02T20:27:15.078Z,46.47
2022-11-02T20:32:23.729Z,47.17
2022-11-02T20:42:33.563Z,47.93
2022-11-02T20:47:39.301Z,46.17
2022-11-02T20:52:45.836Z,45.37
2022-11-02T20:57:52.537Z,46.87
2022-11-02T21:02:58.207Z,47.15
2022-11-02T21:08:03.085Z,45.77
2022-11-02T21:13:28.127Z,51.43
2022-11-02T21:18:36.284Z,56.83
2022-11-02T21:23:41.271Z,58.80
2022-11-02T21:28:46.827Z,49.47
2022-11-02T21:33:52.000Z,50.30
2022-11-02T21:38:58.855Z,46.20
2022-11-02T21:44:04.034Z,48.17
2022-11-02T21:49:08.920Z,46.53
2022-11-02T21:54:13.919Z,46.43
2022-11-02T21:59:20.089Z,49.07
2022-11-02T22:04:29.053Z,58.67
2022-11-02T22:09:34.671Z,64.80
2022-11-02T22:14:41.420Z,60.73
2022-11-02T22:19:46.493Z,58.80
2022-11-02T22:24:51.835Z,52.73
2022-11-02T22:29:56.744Z,52.10
2022-11-02T22:35:01.604Z,52.53
2022-11-02T22:40:07.803Z,50.40
2022-11-02T22:45:12.675Z,51.60
2022-11-02T22:50:17.606Z,50.20
2022-11-02T22:55:22.450Z,55.17
2022-11-02T23:00:27.292Z,52.27
2022-11-02T23:05:32.935Z,50.93
2022-11-02T23:10:57.764Z,52.67
2022-11-02T23:16:06.826Z,50.60
2022-11-02T23:21:11.866Z,48.60
2022-11-02T23:26:16.901Z,50.10
2022-11-02T23:31:35.475Z,49.53
2022-11-02T23:36:40.771Z,50.17
2022-11-02T23:41:46.131Z,48.23
2022-11-02T23:46:52.767Z,45.63
2022-11-02T23:57:20.911Z,47.60
